createdAt,value
2023-10-08T00:00:02.048Z,97449.52
2023-10-08T00:02:31.933Z,97446.82
2023-10-08T00:05:00.934Z,97443.00
2023-10-08T00:07:29.026Z,97436.05
2023-10-08T00:09:56.902Z,97435.73
2023-10-08T00:12:24.978Z,97436.97
2023-10-08T00:14:54.597Z,97426.89
2023-10-08T00:17:22.604Z,97425.11
2023-10-08T00:19:52.305Z,97430.88
2023-10-08T00:22:21.323Z,97433.88
2023-10-08T00:24:51.036Z,97439.18
2023-10-08T00:27:19.038Z,97436.93
2023-10-08T00:29:48.318Z,97438.75
2023-10-08T00:32:17.683Z,97434.52
2023-10-08T00:34:45.512Z,97425.53
2023-10-08T00:37:17.415Z,97420.84
2023-10-08T00:39:46.570Z,97410.75
2023-10-08T00:42:14.519Z,97409.84
2023-10-08T00:44:44.426Z,97405.49
2023-10-08T00:47:12.924Z,97397.62
2023-10-08T00:49:43.632Z,97389.23
2023-10-08T00:52:14.010Z,97390.45
2023-10-08T00:54:55.800Z,97384.97
2023-10-08T00:57:27.355Z,97384.31
2023-10-08T00:59:56.491Z,97383.65
2023-10-08T01:02:28.910Z,97377.03
2023-10-08T01:04:57.259Z,97371.30
2023-10-08T01:07:26.390Z,97356.94
2023-10-08T01:09:56.188Z,97371.20
2023-10-08T01:12:26.641Z,97370.32
2023-10-08T01:14:55.450Z,97363.80
2023-10-08T01:17:27.134Z,97366.61
2023-10-08T01:19:56.932Z,97362.47
2023-10-08T01:22:26.837Z,97359.90
2023-10-08T01:24:54.894Z,97361.36
2023-10-08T01:27:24.578Z,97355.63
2023-10-08T01:29:53.439Z,97351.02
2023-10-08T01:32:24.395Z,97349.81
2023-10-08T01:34:52.234Z,97330.63
2023-10-08T01:37:21.995Z,97333.75
2023-10-08T01:39:50.935Z,97346.91
2023-10-08T01:42:19.000Z,97347.91
2023-10-08T01:44:51.253Z,97352.64
2023-10-08T01:47:19.937Z,97353.89
2023-10-08T01:49:48.259Z,97336.47
2023-10-08T01:52:21.375Z,97336.13
2023-10-08T01:54:50.521Z,97320.84
2023-10-08T01:57:18.600Z,97315.79
2023-10-08T01:59:46.637Z,97315.23
2023-10-08T02:02:16.048Z,97325.91
2023-10-08T02:04:44.440Z,97317.69
2023-10-08T02:07:15.161Z,97301.75
2023-10-08T02:09:42.895Z,97300.30
2023-10-08T02:12:10.831Z,97300.41
2023-10-08T02:14:41.898Z,97294.30
2023-10-08T02:17:10.670Z,97280.81
2023-10-08T02:19:38.313Z,97278.02
2023-10-08T02:22:08.249Z,97283.08
2023-10-08T02:24:38.068Z,97284.08
2023-10-08T02:27:07.280Z,97281.03
2023-10-08T02:29:35.806Z,97269.34
2023-10-08T02:32:05.265Z,97262.03
2023-10-08T02:34:33.567Z,97263.84
2023-10-08T02:37:03.843Z,97265.52
2023-10-08T02:39:32.512Z,97272.47
2023-10-08T02:42:00.669Z,97263.48
2023-10-08T02:44:28.833Z,97254.71
2023-10-08T02:46:57.533Z,97255.95
2023-10-08T02:49:25.450Z,97246.61
2023-10-08T02:51:55.295Z,97241.99
2023-10-08T02:54:25.788Z,97240.86
2023-10-08T02:56:58.437Z,97239.72
2023-10-08T02:59:41.592Z,97237.02
2023-10-08T03:02:22.082Z,97237.27
2023-10-08T03:04:53.181Z,97226.22
2023-10-08T03:07:26.547Z,97225.80
2023-10-08T03:10:13.037Z,97213.77
2023-10-08T03:12:40.879Z,97209.27
2023-10-08T03:15:16.316Z,97209.27
2023-10-08T03:17:50.136Z,97208.48
2023-10-08T03:20:37.693Z,97212.53
2023-10-08T03:23:08.567Z,97213.66
2023-10-08T03:25:38.302Z,97216.36
2023-10-08T03:28:08.974Z,97218.61
2023-10-08T03:30:41.982Z,97209.97
2023-10-08T03:33:11.448Z,97204.79
2023-10-08T03:35:41.014Z,97205.22
2023-10-08T03:38:27.419Z,97207.80
2023-10-08T03:41:00.923Z,97206.13
2023-10-08T03:43:35.255Z,97212.52
2023-10-08T03:46:06.487Z,97216.78
2023-10-08T03:48:37.687Z,97207.58
2023-10-08T03:51:10.610Z,97209.70
2023-10-08T03:53:46.417Z,97197.98
2023-10-08T03:56:15.026Z,97197.77
2023-10-08T03:58:44.743Z,97194.29
2023-10-08T04:01:14.671Z,97193.16
2023-10-08T04:03:51.208Z,97195.53
2023-10-08T04:06:26.293Z,97194.81
2023-10-08T04:08:55.974Z,97187.52
2023-10-08T04:11:25.653Z,97185.03
2023-10-08T04:13:53.791Z,97183.02
2023-10-08T04:16:21.935Z,97189.98
2023-10-08T04:18:51.163Z,97184.48
2023-10-08T04:21:21.392Z,97185.41
2023-10-08T04:23:52.720Z,97183.28
2023-10-08T04:26:26.964Z,97182.05
2023-10-08T04:29:02.080Z,97178.89
2023-10-08T04:31:37.892Z,97177.69
2023-10-08T04:34:14.847Z,97181.73
2023-10-08T04:36:46.178Z,97177.45
2023-10-08T04:39:18.976Z,97175.31
2023-10-08T04:41:48.761Z,97171.05
2023-10-08T04:44:17.099Z,97167.01
2023-10-08T04:46:46.066Z,97173.75
2023-10-08T04:49:20.214Z,97171.84
2023-10-08T04:51:49.656Z,97170.48
2023-10-08T04:54:17.704Z,97167.01
2023-10-08T04:56:45.795Z,97164.31
2023-10-08T04:59:13.905Z,97164.52
2023-10-08T05:01:48.620Z,97166.08
2023-10-08T05:04:28.760Z,97167.53
2023-10-08T05:07:04.887Z,97159.67
2023-10-08T05:09:50.132Z,97161.45
2023-10-08T05:12:19.796Z,97150.89
2023-10-08T05:14:49.557Z,97145.70
2023-10-08T05:17:17.425Z,97141.30
2023-10-08T05:19:59.075Z,97139.84
2023-10-08T05:22:31.652Z,97138.38
2023-10-08T05:25:13.851Z,97145.21
2023-10-08T05:27:48.755Z,97144.53
2023-10-08T05:30:29.562Z,97144.38
2023-10-08T05:33:07.326Z,97143.27
2023-10-08T05:35:43.313Z,97150.23
2023-10-08T05:38:25.912Z,97150.11
2023-10-08T05:40:57.349Z,97143.78
2023-10-08T05:43:42.786Z,97145.02
2023-10-08T05:46:23.605Z,97140.61
2023-10-08T05:49:06.416Z,97141.27
2023-10-08T05:51:47.623Z,97151.50
2023-10-08T05:54:34.323Z,97153.09
2023-10-08T05:57:15.464Z,97156.57
2023-10-08T05:59:57.635Z,97150.03
2023-10-08T06:02:35.256Z,97144.63
2023-10-08T06:05:11.680Z,97136.53
2023-10-08T06:07:56.966Z,97137.88
2023-10-08T06:10:31.360Z,97146.43
2023-10-08T06:13:04.903Z,97143.94
2023-10-08T06:15:50.310Z,97142.37
2023-10-08T06:18:29.733Z,97142.23
2023-10-08T06:21:09.374Z,97133.34
2023-10-08T06:23:42.651Z,97132.23
2023-10-08T06:26:10.421Z,97135.36
2023-10-08T06:28:39.812Z,97130.20
2023-10-08T06:31:09.677Z,97137.94
2023-10-08T06:33:37.919Z,97138.72
2023-10-08T06:36:12.049Z,97140.64
2023-10-08T06:38:45.220Z,97133.80
2023-10-08T06:41:14.186Z,97141.12
2023-10-08T06:43:45.320Z,97150.78
2023-10-08T06:46:13.110Z,97147.30
2023-10-08T06:48:46.412Z,97143.25
2023-10-08T06:51:14.686Z,97137.28
2023-10-08T06:53:46.818Z,97131.30
2023-10-08T06:56:16.264Z,97133.67
2023-10-08T06:58:46.249Z,97131.63
2023-10-08T07:01:14.246Z,97129.56
2023-10-08T07:03:42.360Z,97129.65
2023-10-08T07:06:20.554Z,97128.75
2023-10-08T07:08:50.257Z,97129.05
2023-10-08T07:11:18.693Z,97135.88
2023-10-08T07:13:46.601Z,97139.45
2023-10-08T07:16:18.252Z,97146.77
2023-10-08T07:18:48.677Z,97142.02
2023-10-08T07:21:18.515Z,97139.61
2023-10-08T07:24:00.389Z,97143.99
2023-10-08T07:26:38.635Z,97132.33
2023-10-08T07:29:09.981Z,97125.45
2023-10-08T07:31:46.630Z,97125.97
2023-10-08T07:34:21.353Z,97123.97
2023-10-08T07:36:53.051Z,97120.44
2023-10-08T07:39:31.809Z,97124.86
2023-10-08T07:42:05.966Z,97115.78
2023-10-08T07:44:37.495Z,97119.42
2023-10-08T07:47:09.206Z,97118.92
2023-10-08T07:49:39.046Z,97129.11
2023-10-08T07:52:13.001Z,97128.61
2023-10-08T07:54:41.400Z,97127.77
2023-10-08T07:57:18.826Z,97115.10
2023-10-08T07:59:53.241Z,97118.45
2023-10-08T08:02:23.692Z,97122.08
2023-10-08T08:04:53.981Z,97118.30
2023-10-08T08:07:22.774Z,97118.02
2023-10-08T08:09:55.183Z,97122.56
2023-10-08T08:12:28.152Z,97119.78
2023-10-08T08:15:00.277Z,97116.09
2023-10-08T08:17:30.368Z,97108.23
2023-10-08T08:19:59.036Z,97099.98
2023-10-08T08:22:31.851Z,97083.29
2023-10-08T08:25:03.279Z,97069.95
2023-10-08T08:27:33.946Z,97075.69
2023-10-08T08:30:14.404Z,97086.66
2023-10-08T08:32:44.129Z,97090.91
2023-10-08T08:35:15.123Z,97098.91
2023-10-08T08:37:43.602Z,97111.08
2023-10-08T08:40:14.052Z,97104.42
2023-10-08T08:42:42.422Z,97085.50
2023-10-08T08:45:14.700Z,97081.81
2023-10-08T08:47:42.773Z,97081.52
2023-10-08T08:50:11.272Z,97082.66
2023-10-08T08:52:44.221Z,97083.81
2023-10-08T08:55:14.249Z,97077.81
2023-10-08T08:57:47.986Z,97081.67
2023-10-08T09:00:20.422Z,97084.22
2023-10-08T09:02:51.780Z,97077.31
2023-10-08T09:05:28.243Z,97073.55
2023-10-08T09:08:06.798Z,97059.25
2023-10-08T09:10:39.144Z,97055.23
2023-10-08T09:13:09.984Z,97053.95
2023-10-08T09:15:38.519Z,97056.29
2023-10-08T09:18:07.247Z,97075.37
2023-10-08T09:20:44.822Z,97073.42
2023-10-08T09:23:17.806Z,97088.63
2023-10-08T09:25:48.995Z,97095.80
2023-10-08T09:28:19.430Z,97096.73
2023-10-08T09:30:48.888Z,97093.78
2023-10-08T09:33:18.565Z,97095.12
2023-10-08T09:35:49.808Z,97089.25
2023-10-08T09:38:19.406Z,97085.72
2023-10-08T09:40:47.482Z,97084.33
2023-10-08T09:43:17.278Z,97091.10
2023-10-08T09:46:00.016Z,97087.98
2023-10-08T09:48:31.668Z,97085.41
2023-10-08T09:51:04.148Z,97085.95
2023-10-08T09:54:08.152Z,97083.79
2023-10-08T09:56:36.692Z,97078.09
2023-10-08T09:59:05.121Z,97076.52
2023-10-08T10:01:33.703Z,97076.08
2023-10-08T10:04:01.761Z,97071.20
2023-10-08T10:06:31.648Z,97067.90
2023-10-08T10:09:10.877Z,97061.30
2023-10-08T10:11:39.136Z,97060.49
2023-10-08T10:14:11.077Z,97065.55
2023-10-08T10:16:49.813Z,97067.27
2023-10-08T10:19:21.120Z,97062.03
2023-10-08T10:21:49.960Z,97062.61
2023-10-08T10:24:37.892Z,97062.97
2023-10-08T10:27:16.756Z,97060.06
2023-10-08T10:29:46.083Z,97063.55
2023-10-08T10:32:16.034Z,97066.28
2023-10-08T10:34:47.792Z,97067.05
2023-10-08T10:37:22.287Z,97057.31
2023-10-08T10:39:59.434Z,97058.84
2023-10-08T10:42:31.936Z,97053.58
2023-10-08T10:44:59.564Z,97056.88
2023-10-08T10:47:28.217Z,97049.30
2023-10-08T10:50:09.746Z,97052.41
2023-10-08T10:52:48.282Z,97047.92
2023-10-08T10:55:18.758Z,97051.20
2023-10-08T10:57:56.720Z,97059.33
2023-10-08T11:00:30.776Z,97048.63
2023-10-08T11:03:04.209Z,97056.16
2023-10-08T11:05:42.076Z,97060.05
2023-10-08T11:08:13.120Z,97066.07
2023-10-08T11:10:55.138Z,97059.02
2023-10-08T11:13:27.604Z,97058.05
2023-10-08T11:15:58.027Z,97057.86
2023-10-08T11:18:35.721Z,97054.73
2023-10-08T11:21:19.657Z,97060.91
2023-10-08T11:23:57.272Z,97061.45
2023-10-08T11:26:36.041Z,97059.91
2023-10-08T11:29:04.640Z,97058.55
2023-10-08T11:31:36.920Z,97060.07
2023-10-08T11:34:10.948Z,97056.58
2023-10-08T11:36:53.745Z,97039.66
2023-10-08T11:39:23.389Z,97039.27
2023-10-08T11:42:06.594Z,97054.38
2023-10-08T11:44:36.528Z,97051.25
2023-10-08T11:47:16.683Z,97056.03
2023-10-08T11:49:50.985Z,97057.59
2023-10-08T11:52:23.040Z,97056.00
2023-10-08T11:54:53.518Z,97059.72
2023-10-08T11:57:22.504Z,97056.42
2023-10-08T11:59:52.607Z,97067.65
2023-10-08T12:02:21.391Z,97064.38
2023-10-08T12:04:49.727Z,97068.81
2023-10-08T12:07:18.048Z,97074.24
2023-10-08T12:09:48.988Z,97066.48
2023-10-08T12:12:19.215Z,97070.91
2023-10-08T12:14:47.906Z,97066.41
2023-10-08T12:17:17.530Z,97067.13
2023-10-08T12:19:46.002Z,97075.39
2023-10-08T12:22:15.620Z,97099.56
2023-10-08T12:24:44.860Z,97108.48
2023-10-08T12:27:12.505Z,97114.89
2023-10-08T12:29:40.178Z,97115.11
2023-10-08T12:32:10.831Z,97120.83
2023-10-08T12:34:38.542Z,97130.13
2023-10-08T12:37:08.175Z,97138.17
2023-10-08T12:39:37.798Z,97142.55
2023-10-08T12:42:05.733Z,97142.20
2023-10-08T12:44:34.561Z,97147.66
2023-10-08T12:47:04.625Z,97140.44
2023-10-08T12:49:34.338Z,97153.48
2023-10-08T12:52:03.180Z,97154.23
2023-10-08T12:54:32.981Z,97156.33
2023-10-08T12:57:01.127Z,97151.69
2023-10-08T12:59:31.061Z,97155.33
2023-10-08T13:02:01.761Z,97143.84
2023-10-08T13:04:29.588Z,97166.56
2023-10-08T13:07:03.004Z,97185.09
2023-10-08T13:09:32.232Z,97178.66
2023-10-08T13:12:00.263Z,97173.95
2023-10-08T13:14:27.869Z,97179.08
2023-10-08T13:16:57.004Z,97180.14
2023-10-08T13:19:26.768Z,97188.39
2023-10-08T13:21:56.371Z,97197.78
2023-10-08T13:24:25.916Z,97192.70
2023-10-08T13:26:53.792Z,97195.56
2023-10-08T13:29:24.885Z,97196.18
2023-10-08T13:31:53.592Z,97205.12
2023-10-08T13:34:22.183Z,97218.42
2023-10-08T13:36:50.097Z,97221.95
2023-10-08T13:39:20.562Z,97228.63
2023-10-08T13:41:48.742Z,97232.02
2023-10-08T13:44:16.506Z,97234.09
2023-10-08T13:46:46.275Z,97238.84
2023-10-08T13:49:16.373Z,97236.27
2023-10-08T13:51:48.104Z,97250.83
2023-10-08T13:54:15.907Z,97253.66
2023-10-08T13:56:45.981Z,97244.67
2023-10-08T13:59:14.441Z,97254.25
2023-10-08T14:01:49.749Z,97254.61
2023-10-08T14:06:47.350Z,97264.19
2023-10-08T14:09:17.262Z,97269.59
2023-10-08T14:11:44.717Z,97265.33
2023-10-08T14:14:13.735Z,97267.80
2023-10-08T14:16:47.240Z,97273.55
2023-10-08T14:19:15.787Z,97271.84
2023-10-08T14:21:50.806Z,97273.09
2023-10-08T14:24:18.598Z,97281.68
2023-10-08T14:26:48.460Z,97282.61
2023-10-08T14:29:15.942Z,97283.08
2023-10-08T14:31:46.586Z,97294.89
2023-10-08T14:34:16.714Z,97300.44
2023-10-08T14:37:08.126Z,97302.59
2023-10-08T14:39:54.723Z,97309.03
2023-10-08T14:42:41.318Z,97311.63
2023-10-08T14:45:14.220Z,97308.12
2023-10-08T14:47:42.144Z,97310.28
2023-10-08T14:50:12.046Z,97316.36
2023-10-08T14:52:40.759Z,97313.20
2023-10-08T14:55:08.828Z,97313.56
2023-10-08T14:57:36.526Z,97309.27
2023-10-08T15:00:06.520Z,97312.44
2023-10-08T15:02:35.394Z,97321.21
2023-10-08T15:05:03.447Z,97322.70
2023-10-08T15:07:32.523Z,97325.05
2023-10-08T15:10:03.989Z,97334.07
2023-10-08T15:12:35.492Z,97334.39
2023-10-08T15:15:06.240Z,97342.63
2023-10-08T15:17:34.878Z,97349.70
2023-10-08T15:20:04.402Z,97355.67
2023-10-08T15:22:32.120Z,97364.80
2023-10-08T15:24:59.849Z,97375.23
2023-10-08T15:27:29.366Z,97376.47
2023-10-08T15:29:57.553Z,97387.61
2023-10-08T15:32:25.971Z,97385.80
2023-10-08T15:34:53.860Z,97394.25
2023-10-08T15:37:24.748Z,97404.94
2023-10-08T15:39:53.309Z,97417.97
2023-10-08T15:42:22.801Z,97408.98
2023-10-08T15:44:50.956Z,97423.92
2023-10-08T15:47:20.908Z,97425.95
2023-10-08T15:49:53.273Z,97437.96
2023-10-08T15:52:25.656Z,97453.13
2023-10-08T15:54:53.635Z,97453.86
2023-10-08T15:57:21.365Z,97462.21
2023-10-08T15:59:55.245Z,97464.31
2023-10-08T16:02:23.888Z,97470.11
2023-10-08T16:04:54.840Z,97469.25
2023-10-08T16:07:27.059Z,97472.03
2023-10-08T16:10:03.170Z,97476.12
2023-10-08T16:12:31.044Z,97476.20
2023-10-08T16:14:59.013Z,97484.56
2023-10-08T16:17:31.067Z,97487.95
2023-10-08T16:19:59.146Z,97482.97
2023-10-08T16:22:29.422Z,97496.45
2023-10-08T16:25:01.806Z,97500.55
2023-10-08T16:27:29.739Z,97494.63
2023-10-08T16:29:58.006Z,97508.70
2023-10-08T16:32:26.572Z,97513.00
2023-10-08T16:34:54.223Z,97524.78
2023-10-08T16:37:22.696Z,97539.98
2023-10-08T16:39:52.386Z,97541.59
2023-10-08T16:42:23.009Z,97552.81
2023-10-08T16:44:52.165Z,97559.38
2023-10-08T16:47:20.836Z,97571.66
2023-10-08T16:49:51.652Z,97572.70
2023-10-08T16:52:20.604Z,97586.55
2023-10-08T16:54:48.386Z,97589.60
2023-10-08T16:57:16.899Z,97594.92
2023-10-08T16:59:47.547Z,97614.37
2023-10-08T17:02:17.313Z,97611.81
2023-10-08T17:04:49.451Z,97618.08
2023-10-08T17:07:17.084Z,97631.36
2023-10-08T17:09:45.244Z,97638.70
2023-10-08T17:12:15.000Z,97639.00
2023-10-08T17:14:43.293Z,97642.86
2023-10-08T17:17:12.905Z,97650.23
2023-10-08T17:19:42.474Z,97649.34
2023-10-08T17:22:10.814Z,97649.19
2023-10-08T17:24:40.507Z,97653.58
2023-10-08T17:27:14.799Z,97661.23
2023-10-08T17:29:38.641Z,97653.33
2023-10-08T17:32:09.802Z,97652.44
2023-10-08T17:34:38.040Z,97658.27
2023-10-08T17:37:06.656Z,97661.06
2023-10-08T17:39:34.560Z,97674.41
2023-10-08T17:42:02.645Z,97677.77
2023-10-08T17:44:30.955Z,97679.00
2023-10-08T17:47:01.945Z,97682.62
2023-10-08T17:49:32.249Z,97688.92
2023-10-08T17:52:01.260Z,97695.19
2023-10-08T17:54:30.627Z,97699.04
2023-10-08T17:56:58.537Z,97706.13
2023-10-08T17:59:28.809Z,97709.41
2023-10-08T18:01:56.955Z,97715.70
2023-10-08T18:04:26.243Z,97721.69
2023-10-08T18:06:55.018Z,97732.78
2023-10-08T18:09:25.986Z,97744.13
2023-10-08T18:11:55.934Z,97749.02
2023-10-08T18:14:28.646Z,97751.44
2023-10-08T18:16:57.089Z,97750.88
2023-10-08T18:19:27.743Z,97754.91
2023-10-08T18:21:55.830Z,97763.82
2023-10-08T18:24:28.982Z,97771.38
2023-10-08T18:26:59.853Z,97775.99
2023-10-08T18:29:28.940Z,97783.86
2023-10-08T18:31:58.715Z,97797.86
2023-10-08T18:34:28.312Z,97789.63
2023-10-08T18:37:01.482Z,97792.13
2023-10-08T18:39:30.259Z,97801.32
2023-10-08T18:42:00.106Z,97807.28
2023-10-08T18:44:28.305Z,97803.86
2023-10-08T18:47:01.750Z,97809.31
2023-10-08T18:49:30.045Z,97815.82
2023-10-08T18:51:59.683Z,97824.46
2023-10-08T18:54:29.320Z,97828.80
2023-10-08T18:57:00.425Z,97831.52
2023-10-08T18:59:28.477Z,97841.22
2023-10-08T19:01:56.391Z,97852.57
2023-10-08T19:04:29.552Z,97859.38
2023-10-08T19:06:57.601Z,97861.36
2023-10-08T19:09:27.381Z,97865.73
2023-10-08T19:11:57.350Z,97869.34
2023-10-08T19:14:24.838Z,97871.07
2023-10-08T19:16:53.688Z,97868.23
2023-10-08T19:19:22.683Z,97866.73
2023-10-08T19:21:51.302Z,97869.81
2023-10-08T19:24:19.228Z,97870.12
2023-10-08T19:26:51.849Z,97874.21
2023-10-08T19:29:20.802Z,97865.70
2023-10-08T19:31:49.518Z,97869.27
2023-10-08T19:34:17.646Z,97881.11
2023-10-08T19:36:45.687Z,97885.71
2023-10-08T19:39:14.148Z,97879.59
2023-10-08T19:41:42.514Z,97879.66
2023-10-08T19:44:11.005Z,97888.76
2023-10-08T19:46:39.121Z,97908.90
2023-10-08T19:49:07.013Z,97920.98
2023-10-08T19:51:35.181Z,97922.86
2023-10-08T19:54:04.340Z,97915.66
2023-10-08T19:56:33.014Z,97915.96
2023-10-08T19:59:02.799Z,97925.36
2023-10-08T20:01:31.339Z,97931.29
2023-10-08T20:03:59.481Z,97926.81
2023-10-08T20:06:27.638Z,97934.63
2023-10-08T20:08:55.614Z,97937.09
2023-10-08T20:11:24.482Z,97939.80
2023-10-08T20:13:53.542Z,97936.88
2023-10-08T20:16:21.611Z,97936.08
2023-10-08T20:18:49.885Z,97937.66
2023-10-08T20:21:21.080Z,97941.92
2023-10-08T20:23:51.047Z,97950.20
2023-10-08T20:26:21.742Z,97953.97
2023-10-08T20:28:52.563Z,97957.73
2023-10-08T20:31:21.813Z,97969.53
2023-10-08T20:33:49.575Z,97973.57
2023-10-08T20:36:20.423Z,97975.72
2023-10-08T20:38:50.132Z,97980.31
2023-10-08T20:41:20.938Z,97980.06
2023-10-08T20:43:49.203Z,97985.44
2023-10-08T20:46:18.879Z,97988.98
2023-10-08T20:48:48.216Z,97989.01
2023-10-08T20:51:17.708Z,97986.95
2023-10-08T20:53:46.254Z,97991.02
2023-10-08T20:56:13.991Z,98003.13
2023-10-08T20:58:43.047Z,98000.50
2023-10-08T21:01:11.339Z,98000.27
2023-10-08T21:03:39.375Z,97995.26
2023-10-08T21:06:07.385Z,97992.11
2023-10-08T21:08:35.985Z,97990.05
2023-10-08T21:11:03.791Z,97988.21
2023-10-08T21:13:31.660Z,97994.68
2023-10-08T21:16:02.227Z,97996.33
2023-10-08T21:18:31.703Z,97996.94
2023-10-08T21:21:03.685Z,97998.06
2023-10-08T21:23:31.602Z,98000.56
2023-10-08T21:25:59.209Z,98003.56
2023-10-08T21:28:27.008Z,98004.92
2023-10-08T21:30:55.309Z,98009.48
2023-10-08T21:33:23.820Z,98008.95
2023-10-08T21:35:52.853Z,98016.43
2023-10-08T21:38:23.832Z,98020.20
2023-10-08T21:41:00.231Z,98021.01
2023-10-08T21:43:28.229Z,98024.22
2023-10-08T21:45:56.066Z,98027.73
2023-10-08T21:48:24.107Z,98015.20
2023-10-08T21:50:53.837Z,98021.14
2023-10-08T21:53:21.659Z,98010.22
2023-10-08T21:55:49.301Z,98018.78
2023-10-08T21:58:18.909Z,98019.33
2023-10-08T22:00:47.148Z,98022.30
2023-10-08T22:03:15.636Z,98026.31
2023-10-08T22:05:46.695Z,98026.63
2023-10-08T22:08:16.049Z,98026.44
2023-10-08T22:10:44.518Z,98037.20
2023-10-08T22:13:13.339Z,98046.59
2023-10-08T22:15:55.457Z,98046.34
2023-10-08T22:18:27.733Z,98058.13
2023-10-08T22:20:55.960Z,98063.47
2023-10-08T22:23:25.461Z,98068.80
2023-10-08T22:25:55.680Z,98061.09
2023-10-08T22:28:25.313Z,98056.30
2023-10-08T22:30:58.820Z,98059.50
2023-10-08T22:33:34.244Z,98055.80
2023-10-08T22:36:08.183Z,98054.20
2023-10-08T22:38:35.985Z,98060.08
2023-10-08T22:41:03.767Z,98055.28
2023-10-08T22:43:37.261Z,98052.90
2023-10-08T22:46:08.881Z,98063.05
2023-10-08T22:48:45.991Z,98066.53
2023-10-08T22:51:26.158Z,98081.46
2023-10-08T22:53:58.025Z,98084.39
2023-10-08T22:56:26.533Z,98093.47
2023-10-08T22:58:57.828Z,98097.20
2023-10-08T23:01:27.661Z,98096.67
2023-10-08T23:03:56.811Z,98108.13
2023-10-08T23:06:24.807Z,98106.25
2023-10-08T23:08:54.910Z,98107.05
2023-10-08T23:11:22.902Z,98116.91
2023-10-08T23:13:51.732Z,98120.39
2023-10-08T23:16:23.571Z,98120.65
2023-10-08T23:18:51.727Z,98120.65
2023-10-08T23:21:21.222Z,98121.98
2023-10-08T23:23:49.190Z,98129.72
2023-10-08T23:26:18.207Z,98123.84
2023-10-08T23:28:46.969Z,98131.03
2023-10-08T23:31:15.573Z,98133.16
2023-10-08T23:33:45.467Z,98136.89
2023-10-08T23:36:17.255Z,98143.83
2023-10-08T23:38:47.554Z,98145.69
2023-10-08T23:41:23.103Z,98150.74
2023-10-08T23:43:56.955Z,98155.02
2023-10-08T23:46:33.944Z,98161.39
2023-10-08T23:49:08.735Z,98166.47
2023-10-08T23:51:41.907Z,98176.84
2023-10-08T23:54:14.701Z,98174.19
2023-10-08T23:56:45.868Z,98173.66
2023-10-08T23:59:18.737Z,98169.92
